Time;durP1;ratioP1;P1;durP2;ratioP2;P2;SDS_P1;SDS_P2;PMS_P1;PMS_P2;Temp;Humidity;BMP_temperature;BMP_pressure;BME280_temperature;BME280_humidity;BME280_pressure;Samples;Min_cycle;Max_cycle;Signal;HPM_P1;HPM_P2
2023/09/20 00:00:22;;;;;;;10.30;2.60;;;;;;;13.49;71.33;99171.89;108060;1253;1002321;-67
2023/09/20 00:03:28;;;;;;;10.80;2.70;;;;;;;13.47;71.26;99176.13;109576;1252;74497;-65
2023/09/20 00:06:17;;;;;;;8.50;2.60;;;;;;;13.42;71.50;99170.14;109342;1253;59412;-66
2023/09/20 00:09:04;;;;;;;7.70;2.20;;;;;;;13.39;71.65;99170.94;109351;1252;59067;-66
2023/09/20 00:11:50;;;;;;;8.20;2.60;;;;;;;13.40;71.51;99170.41;109580;1252;73118;-65
2023/09/20 00:14:37;;;;;;;9.30;2.40;;;;;;;13.39;71.50;99160.65;109401;1253;67586;-66
2023/09/20 00:17:23;;;;;;;9.40;2.60;;;;;;;13.39;71.41;99171.84;109526;1252;72584;-63
2023/09/20 00:20:13;;;;;;;9.40;2.50;;;;;;;13.39;71.39;99167.11;109558;1252;57862;-65
2023/09/20 00:23:02;;;;;;;7.20;2.40;;;;;;;13.36;71.54;99163.08;109390;1252;61316;-65
2023/09/20 00:25:50;;;;;;;10.50;2.80;;;;;;;13.34;71.65;99164.75;109314;1253;72673;-65
2023/09/20 00:28:38;;;;;;;14.70;3.70;;;;;;;13.33;71.61;99165.73;109362;1252;67681;-63
2023/09/20 00:31:24;;;;;;;9.00;3.10;;;;;;;13.33;71.77;99164.86;109292;1253;72545;-63
2023/09/20 00:34:11;;;;;;;8.80;2.30;;;;;;;13.30;71.82;99166.71;109510;1253;57737;-66
2023/09/20 00:36:57;;;;;;;8.40;2.50;;;;;;;13.27;71.94;99168.57;109367;1253;60219;-64
2023/09/20 00:39:44;;;;;;;8.00;2.40;;;;;;;13.27;71.94;99170.21;109551;1252;73963;-64
2023/09/20 00:42:32;;;;;;;7.70;2.40;;;;;;;13.23;71.94;99169.89;109360;1253;66391;-64
2023/09/20 00:45:19;;;;;;;6.70;2.00;;;;;;;13.20;72.21;99165.39;109359;1252;72719;-64
2023/09/20 00:48:08;;;;;;;8.70;2.50;;;;;;;13.20;72.26;99166.12;109301;1253;60614;-63
2023/09/20 00:50:55;;;;;;;7.80;2.20;;;;;;;13.19;72.41;99166.22;109322;1252;58641;-63
2023/09/20 00:53:42;;;;;;;8.10;2.60;;;;;;;13.19;72.34;99161.31;109601;1253;73038;-64
2023/09/20 00:56:30;;;;;;;11.00;2.60;;;;;;;13.20;72.37;99159.98;109358;1253;67967;-64
2023/09/20 00:59:17;;;;;;;8.40;2.50;;;;;;;13.18;72.78;99158.88;109339;1253;72450;-63
2023/09/20 01:02:05;;;;;;;8.90;2.60;;;;;;;13.17;72.74;99158.84;109535;1252;59711;-63
2023/09/20 01:04:53;;;;;;;9.10;2.70;;;;;;;13.16;72.89;99163.03;109381;1254;60064;-63
2023/09/20 01:07:41;;;;;;;9.20;2.60;;;;;;;13.14;72.87;99162.89;109554;1253;71745;-63
2023/09/20 01:10:31;;;;;;;8.60;2.70;;;;;;;13.11;73.01;99165.63;109568;1252;67623;-64
2023/09/20 01:13:18;;;;;;;10.00;2.70;;;;;;;13.08;73.19;99166.09;109379;1253;74084;-62
2023/09/20 01:16:05;;;;;;;11.50;2.60;;;;;;;13.04;73.42;99165.98;109343;1253;57817;-64
2023/09/20 01:18:52;;;;;;;10.60;2.70;;;;;;;12.98;73.86;99164.85;109527;1253;61138;-64
2023/09/20 01:21:43;;;;;;;9.10;2.50;;;;;;;12.93;74.14;99167.30;109456;1253;74225;-65
2023/09/20 01:24:33;;;;;;;9.30;2.70;;;;;;;12.91;74.04;99169.08;109619;1253;68743;-63
2023/09/20 01:27:19;;;;;;;9.50;2.50;;;;;;;12.89;74.10;99171.21;109357;1253;73022;-63
2023/09/20 01:30:08;;;;;;;10.50;2.70;;;;;;;12.84;74.52;99173.71;109537;1253;57291;-63
2023/09/20 01:32:57;;;;;;;11.00;2.90;;;;;;;12.80;74.74;99171.94;109356;1253;60128;-63
2023/09/20 01:35:45;;;;;;;8.50;2.80;;;;;;;12.75;74.88;99173.34;109502;1253;71613;-64
2023/09/20 01:38:31;;;;;;;9.50;2.80;;;;;;;12.70;75.14;99176.01;109586;1252;66465;-62
2023/09/20 01:41:19;;;;;;;8.60;2.40;;;;;;;12.67;75.60;99177.61;109534;1253;72562;-63
2023/09/20 01:44:06;;;;;;;8.20;2.40;;;;;;;12.62;75.91;99178.80;109596;1252;57861;-63
2023/09/20 01:46:53;;;;;;;6.80;2.20;;;;;;;12.57;76.22;99179.80;109543;1252;59992;-63
2023/09/20 01:49:41;;;;;;;7.70;2.70;;;;;;;12.53;76.32;99176.45;109365;1253;72784;-63
2023/09/20 01:52:28;;;;;;;7.60;2.40;;;;;;;12.48;76.61;99176.95;109518;1252;68179;-64
2023/09/20 01:55:18;;;;;;;7.00;2.30;;;;;;;12.45;76.88;99178.52;109312;1252;71105;-64
2023/09/20 01:58:08;;;;;;;9.60;2.80;;;;;;;12.42;76.91;99181.98;109531;1253;59507;-63
2023/09/20 02:00:55;;;;;;;7.70;2.70;;;;;;;12.40;77.27;99181.85;109373;1252;60084;-63
2023/09/20 02:03:41;;;;;;;8.90;2.70;;;;;;;12.37;77.26;99179.09;109388;1252;72997;-63
2023/09/20 02:06:29;;;;;;;8.10;2.50;;;;;;;12.35;77.57;99178.43;109569;1253;65856;-66
2023/09/20 02:09:16;;;;;;;8.70;3.10;;;;;;;12.32;77.73;99178.54;109565;1253;72402;-62
2023/09/20 02:12:05;;;;;;;8.30;2.70;;;;;;;12.29;77.84;99178.31;109479;1254;59218;-64
2023/09/20 02:14:51;;;;;;;7.90;2.30;;;;;;;12.27;78.17;99184.03;109518;1253;60186;-62
2023/09/20 02:17:38;;;;;;;8.90;2.90;;;;;;;12.26;78.55;99185.83;109546;1253;70773;-63
2023/09/20 02:20:25;;;;;;;8.40;2.70;;;;;;;12.26;78.36;99185.52;109408;1253;68001;-62
2023/09/20 02:23:15;;;;;;;9.00;2.90;;;;;;;12.26;78.47;99182.83;109304;1253;72571;-63
2023/09/20 02:26:02;;;;;;;9.60;2.70;;;;;;;12.28;78.49;99188.04;109532;1253;59479;-64
2023/09/20 02:28:48;;;;;;;9.70;2.40;;;;;;;12.29;78.38;99192.88;109410;1253;61244;-63
2023/09/20 02:31:35;;;;;;;8.30;2.30;;;;;;;12.31;78.68;99188.56;109597;1253;73007;-62
2023/09/20 02:34:23;;;;;;;8.10;2.50;;;;;;;12.35;78.25;99192.48;109561;1253;68852;-63
2023/09/20 02:37:10;;;;;;;7.60;2.50;;;;;;;12.37;78.46;99190.36;109560;1252;72419;-63
2023/09/20 02:39:57;;;;;;;10.10;2.50;;;;;;;12.38;78.34;99184.70;109493;1252;57610;-63
2023/09/20 02:42:55;;;;;;;9.70;2.10;;;;;;;12.39;78.15;99185.52;109540;1253;60279;-63
2023/09/20 02:45:45;;;;;;;8.70;2.60;;;;;;;12.41;78.17;99187.83;109333;1253;72505;-63
2023/09/20 02:48:34;;;;;;;7.30;1.90;;;;;;;12.42;78.36;99190.15;109402;1253;66460;-65
2023/09/20 02:51:23;;;;;;;7.40;2.30;;;;;;;12.47;78.06;99187.55;109325;1252;73539;-65
2023/09/20 02:54:12;;;;;;;7.00;2.40;;;;;;;12.50;77.91;99190.29;109463;1257;58988;-65
2023/09/20 02:56:59;;;;;;;7.50;2.60;;;;;;;12.51;77.94;99192.13;109352;1253;59017;-64
2023/09/20 02:59:47;;;;;;;8.50;2.50;;;;;;;12.52;78.00;99195.30;109551;1255;71746;-65
2023/09/20 03:02:34;;;;;;;8.70;2.20;;;;;;;12.53;77.66;99191.71;109385;1253;67728;-64
2023/09/20 03:05:30;;;;;;;8.50;2.50;;;;;;;12.56;77.76;99190.94;109371;1253;72443;-64
2023/09/20 03:08:17;;;;;;;8.90;2.30;;;;;;;12.57;77.52;99189.52;109410;1253;57732;-64
2023/09/20 03:11:03;;;;;;;9.10;2.40;;;;;;;12.58;77.55;99190.71;109559;1253;60218;-64
2023/09/20 03:13:50;;;;;;;7.70;2.40;;;;;;;12.56;77.51;99186.80;109355;1253;73852;-65
2023/09/20 03:16:37;;;;;;;10.30;2.80;;;;;;;12.57;77.59;99186.35;109371;1253;67822;-65
2023/09/20 03:19:24;;;;;;;8.80;2.40;;;;;;;12.57;77.51;99189.74;109368;1253;72735;-65
2023/09/20 03:22:13;;;;;;;8.20;2.20;;;;;;;12.56;77.81;99190.06;109329;1253;57807;-63
2023/09/20 03:24:59;;;;;;;8.00;2.70;;;;;;;12.55;77.97;99193.02;109582;1253;61461;-66
2023/09/20 03:27:48;;;;;;;8.20;2.40;;;;;;;12.54;77.84;99191.31;109415;1255;73909;-64
2023/09/20 03:30:38;;;;;;;7.40;2.40;;;;;;;12.53;77.92;99186.46;109468;1253;66763;-64
2023/09/20 03:33:25;;;;;;;8.50;2.20;;;;;;;12.51;77.85;99185.39;109235;1253;72782;-64
2023/09/20 03:36:15;;;;;;;10.50;2.40;;;;;;;12.48;78.14;99188.16;109278;1253;60544;-63
2023/09/20 03:39:05;;;;;;;8.20;2.00;;;;;;;12.47;78.17;99184.41;109360;1252;61139;-64
2023/09/20 03:41:52;;;;;;;9.40;2.60;;;;;;;12.43;78.66;99180.08;109512;1253;72905;-64
2023/09/20 03:44:39;;;;;;;9.70;2.70;;;;;;;12.40;78.62;99180.02;109382;1253;67938;-64
2023/09/20 03:47:28;;;;;;;12.70;2.30;;;;;;;12.38;78.87;99177.73;109591;1253;73692;-63
2023/09/20 03:50:18;;;;;;;7.40;2.40;;;;;;;12.35;78.87;99180.02;109335;1253;57637;-65
2023/09/20 03:53:04;;;;;;;10.90;2.50;;;;;;;12.32;79.20;99177.80;109414;1253;61142;-66
2023/09/20 03:55:51;;;;;;;11.00;2.70;;;;;;;12.29;79.73;99176.02;109191;1254;72993;-64
2023/09/20 03:58:39;;;;;;;9.50;2.50;;;;;;;12.26;79.90;99173.77;109342;1255;68626;-66
2023/09/20 04:01:26;;;;;;;11.10;2.50;;;;;;;12.24;80.01;99168.96;109477;1257;73345;-66
2023/09/20 04:04:16;;;;;;;10.10;2.60;;;;;;;12.23;80.02;99169.13;109476;1254;58851;-65
2023/09/20 04:07:04;;;;;;;12.10;2.70;;;;;;;12.21;80.13;99168.27;109483;1252;58824;-66
2023/09/20 04:09:50;;;;;;;10.60;2.40;;;;;;;12.19;80.44;99166.48;109566;1253;70880;-66
2023/09/20 04:12:36;;;;;;;11.60;2.70;;;;;;;12.18;80.57;99172.94;109586;1253;66731;-64
2023/09/20 04:15:24;;;;;;;12.20;2.70;;;;;;;12.18;80.48;99175.23;109545;1253;72676;-64
2023/09/20 04:18:15;;;;;;;8.10;2.10;;;;;;;12.17;80.91;99173.59;109409;1253;58919;-65
2023/09/20 04:21:01;;;;;;;8.90;2.80;;;;;;;12.18;80.64;99175.86;109387;1258;60368;-66
2023/09/20 04:23:48;;;;;;;8.20;2.50;;;;;;;12.17;80.95;99178.59;109362;1257;72754;-66
2023/09/20 04:26:34;;;;;;;9.30;2.40;;;;;;;12.17;81.04;99181.48;109376;1253;69064;-66
2023/09/20 04:29:21;;;;;;;10.60;2.40;;;;;;;12.15;81.04;99176.70;109563;1254;72523;-64
2023/09/20 04:32:08;;;;;;;8.70;2.30;;;;;;;12.19;80.96;99183.18;109358;1254;57318;-66
2023/09/20 04:34:56;;;;;;;11.70;2.80;;;;;;;12.19;81.12;99187.45;109571;1252;58939;-64
2023/09/20 04:37:44;;;;;;;12.30;3.10;;;;;;;12.19;81.19;99187.82;109217;1253;234803;-65
2023/09/20 04:40:30;;;;;;;12.20;3.10;;;;;;;12.19;81.41;99194.73;109490;1252;66375;-67
2023/09/20 04:43:17;;;;;;;9.00;2.90;;;;;;;12.20;81.44;99194.30;109299;1254;73498;-66
2023/09/20 04:46:05;;;;;;;9.90;2.90;;;;;;;12.22;81.45;99195.55;109245;1253;59441;-67
2023/09/20 04:48:51;;;;;;;10.80;2.90;;;;;;;12.24;81.45;99196.91;109462;1253;60896;-69
2023/09/20 04:51:38;;;;;;;8.80;2.40;;;;;;;12.28;81.41;99192.70;109357;1255;71568;-68
2023/09/20 04:54:25;;;;;;;8.30;2.50;;;;;;;12.30;81.27;99191.95;109347;1253;67934;-66
2023/09/20 04:57:13;;;;;;;12.40;3.20;;;;;;;12.31;81.39;99191.78;109377;1252;72561;-68
2023/09/20 05:00:00;;;;;;;9.00;2.70;;;;;;;12.36;81.17;99195.08;109329;1254;59469;-68
2023/09/20 05:02:47;;;;;;;11.10;3.50;;;;;;;12.41;80.79;99200.98;109240;1254;61195;-66
2023/09/20 05:05:34;;;;;;;8.90;3.10;;;;;;;12.46;80.48;99204.73;109357;1253;73036;-67
2023/09/20 05:08:20;;;;;;;11.70;3.30;;;;;;;12.51;80.44;99204.47;109372;1253;68771;-65
2023/09/20 05:11:10;;;;;;;8.80;3.00;;;;;;;12.55;80.19;99202.03;109271;1254;71809;-68
2023/09/20 05:13:57;;;;;;;7.00;2.40;;;;;;;12.56;80.01;99201.05;109244;1254;59437;-72
2023/09/20 05:16:44;;;;;;;9.00;2.80;;;;;;;12.63;79.89;99202.88;109100;1254;58835;-71
2023/09/20 05:19:31;;;;;;;9.00;2.80;;;;;;;12.68;79.70;99207.22;109246;1254;72805;-68
2023/09/20 05:22:19;;;;;;;10.30;2.80;;;;;;;12.72;79.67;99214.94;109277;1253;67667;-71
2023/09/20 05:25:07;;;;;;;9.90;3.00;;;;;;;12.80;79.40;99217.70;109280;1254;71183;-69
2023/09/20 05:27:54;;;;;;;9.30;2.70;;;;;;;12.90;79.17;99218.15;109195;1254;59357;-69
2023/09/20 05:30:44;;;;;;;9.60;2.70;;;;;;;13.02;78.81;99216.05;109250;1254;58782;-69
2023/09/20 05:33:32;;;;;;;10.10;3.30;;;;;;;13.12;78.37;99215.23;109243;1254;72944;-68
2023/09/20 05:36:26;;;;;;;9.10;3.10;;;;;;;13.22;77.92;99214.92;109424;1254;67602;-69
2023/09/20 05:39:13;;;;;;;10.30;2.90;;;;;;;13.36;77.48;99218.52;109458;1254;72700;-66
2023/09/20 05:41:59;;;;;;;10.40;3.10;;;;;;;13.47;76.94;99224.99;109276;1253;58232;-67
2023/09/20 05:44:46;;;;;;;12.00;3.20;;;;;;;13.58;76.35;99227.10;109255;1254;60193;-65
2023/09/20 05:47:33;;;;;;;9.40;3.70;;;;;;;13.71;75.97;99225.42;109287;1254;71038;-68
2023/09/20 05:50:33;;;;;;;13.00;3.10;;;;;;;13.86;75.39;99224.19;109246;1254;67808;-68
2023/09/20 05:53:21;;;;;;;12.40;3.00;;;;;;;13.95;74.81;99220.04;109356;1254;71475;-69
2023/09/20 05:56:10;;;;;;;11.70;2.70;;;;;;;14.09;74.46;99224.63;109250;1254;58708;-68
2023/09/20 05:58:58;;;;;;;9.80;2.50;;;;;;;14.22;73.98;99224.94;109258;1254;61079;-71
2023/09/20 06:01:45;;;;;;;11.10;2.90;;;;;;;14.33;73.28;99222.19;109160;1254;71713;-67
2023/09/20 06:04:32;;;;;;;10.00;2.90;;;;;;;14.45;73.00;99222.48;109430;1254;68636;-69
2023/09/20 06:07:19;;;;;;;10.30;2.80;;;;;;;14.59;72.55;99221.27;109438;1254;72655;-67
2023/09/20 06:10:10;;;;;;;9.30;3.20;;;;;;;14.69;71.83;99221.73;109107;1254;57351;-66
2023/09/20 06:12:56;;;;;;;9.00;2.80;;;;;;;14.82;71.50;99219.65;109154;1253;59997;-66
2023/09/20 06:15:43;;;;;;;15.10;3.00;;;;;;;14.93;71.10;99223.27;109480;1252;71683;-62
2023/09/20 06:18:29;;;;;;;12.20;2.90;;;;;;;15.05;70.62;99224.20;109573;1252;67909;-64
2023/09/20 06:21:17;;;;;;;10.20;2.90;;;;;;;15.16;70.29;99221.45;109504;1253;73935;-64
2023/09/20 06:24:10;;;;;;;10.30;2.60;;;;;;;15.31;69.78;99218.58;109437;1254;58997;-67
2023/09/20 06:26:58;;;;;;;11.90;2.90;;;;;;;15.55;69.02;99227.17;109218;1254;58197;-66
2023/09/20 06:29:45;;;;;;;11.30;2.90;;;;;;;15.67;68.06;99230.85;109481;1253;74091;-65
2023/09/20 06:32:33;;;;;;;11.40;3.10;;;;;;;15.77;67.50;99227.70;109542;1253;68878;-65
2023/09/20 06:35:21;;;;;;;9.00;2.80;;;;;;;15.78;67.21;99229.02;109571;1254;72367;-64
2023/09/20 06:38:09;;;;;;;9.10;2.40;;;;;;;15.88;66.94;99231.38;109557;1253;57360;-66
2023/09/20 06:40:56;;;;;;;9.30;2.40;;;;;;;15.93;66.88;99242.02;109488;1254;61284;-65
2023/09/20 06:43:42;;;;;;;10.20;2.60;;;;;;;16.03;66.73;99247.95;109572;1254;72930;-63
2023/09/20 06:46:28;;;;;;;10.30;2.80;;;;;;;16.13;66.32;99245.39;109595;1254;67980;-67
2023/09/20 06:49:14;;;;;;;8.80;2.50;;;;;;;16.34;66.29;99239.70;109464;1254;72583;-66
2023/09/20 06:52:03;;;;;;;9.00;2.80;;;;;;;16.56;64.77;99238.63;109517;1254;57665;-67
2023/09/20 06:54:49;;;;;;;10.20;2.70;;;;;;;16.77;64.00;99239.22;109354;1253;58823;-65
2023/09/20 06:57:36;;;;;;;7.80;2.30;;;;;;;16.84;63.65;99239.16;109487;1253;72956;-65
2023/09/20 07:00:26;;;;;;;9.80;2.80;;;;;;;16.89;63.37;99245.23;109529;1253;66451;-64
2023/09/20 07:03:14;;;;;;;9.40;2.90;;;;;;;16.97;63.01;99244.05;109454;1253;72987;-64
2023/09/20 07:06:02;;;;;;;9.00;2.50;;;;;;;16.95;62.53;99247.70;109463;1252;57944;-65
2023/09/20 07:08:49;;;;;;;9.40;2.60;;;;;;;16.98;62.73;99247.50;109484;1253;60288;-65
2023/09/20 07:11:37;;;;;;;9.80;2.90;;;;;;;17.07;62.67;99246.56;109479;1253;72973;-66
2023/09/20 07:14:25;;;;;;;6.80;2.00;;;;;;;17.07;62.55;99245.66;109387;1253;69032;-65
2023/09/20 07:17:12;;;;;;;10.50;2.60;;;;;;;17.00;62.40;99245.88;109476;1252;72098;-64
2023/09/20 07:19:58;;;;;;;8.40;2.50;;;;;;;16.95;62.50;99248.30;109521;1252;58867;-65
2023/09/20 07:22:47;;;;;;;9.00;2.90;;;;;;;16.81;63.16;99252.23;109414;1254;60805;-65
2023/09/20 07:25:35;;;;;;;8.40;2.50;;;;;;;16.83;63.49;99260.55;109281;1254;73066;-62
2023/09/20 07:28:24;;;;;;;9.30;2.50;;;;;;;16.81;63.44;99260.42;109425;1253;66599;-66
2023/09/20 07:31:10;;;;;;;9.60;2.30;;;;;;;16.83;63.68;99266.10;109349;1254;73397;-66
2023/09/20 07:33:57;;;;;;;8.70;2.30;;;;;;;16.81;63.74;99269.59;109260;1254;57348;-65
2023/09/20 07:36:43;;;;;;;10.20;2.60;;;;;;;16.82;63.77;99272.33;109266;1254;60375;-64
2023/09/20 07:39:30;;;;;;;8.00;2.40;;;;;;;16.96;63.95;99269.33;109381;1254;72919;-64
2023/09/20 07:42:16;;;;;;;8.50;2.40;;;;;;;17.10;63.40;99272.84;109277;1254;68707;-66
2023/09/20 07:45:12;;;;;;;8.30;2.30;;;;;;;17.16;62.85;99276.59;109361;1254;73739;-63
2023/09/20 07:48:00;;;;;;;8.80;2.80;;;;;;;17.27;62.60;99278.73;109385;1254;57886;-67
2023/09/20 07:50:50;;;;;;;11.10;2.60;;;;;;;17.38;62.40;99281.73;109409;1254;58971;-67
2023/09/20 07:53:37;;;;;;;8.90;2.50;;;;;;;17.35;62.07;99286.75;109120;1256;74021;-65
2023/09/20 07:56:24;;;;;;;8.70;2.60;;;;;;;17.40;62.39;99285.48;109271;1253;68031;-64
2023/09/20 07:59:13;;;;;;;9.00;2.40;;;;;;;17.43;62.12;99289.92;109265;1254;72534;-63
2023/09/20 08:02:01;;;;;;;7.10;2.10;;;;;;;17.55;62.14;99289.27;109402;1254;57201;-66
2023/09/20 08:04:47;;;;;;;8.60;2.30;;;;;;;17.55;61.98;99289.48;109440;1253;58822;-64
2023/09/20 08:07:38;;;;;;;9.60;3.00;;;;;;;17.62;61.79;99292.77;109471;1254;73069;-64
2023/09/20 08:10:24;;;;;;;7.90;2.50;;;;;;;17.61;61.87;99297.11;109434;1254;67681;-62
2023/09/20 08:13:11;;;;;;;10.70;2.40;;;;;;;17.57;62.25;99301.36;109395;1253;72751;-66
2023/09/20 08:15:58;;;;;;;7.60;2.30;;;;;;;17.48;62.37;99299.77;109271;1254;57982;-65
2023/09/20 08:21:50;;;;;;;9.00;2.30;;;;;;;17.34;63.17;99302.23;109475;1252;72906;-64
2023/09/20 09:01:47;;;;;;;8.30;1.90;;;;;;;17.58;64.70;99292.54;109523;1252;57935;-64
2023/09/20 09:04:36;;;;;;;7.10;2.20;;;;;;;17.40;64.84;99295.95;109539;1252;58812;-70
2023/09/20 09:07:23;;;;;;;8.40;2.10;;;;;;;17.34;65.71;99295.98;109546;1252;72785;-66
2023/09/20 09:10:09;;;;;;;8.50;2.10;;;;;;;17.29;65.93;99295.77;109371;1252;67672;-65
2023/09/20 09:12:56;;;;;;;7.90;2.10;;;;;;;17.31;66.23;99295.55;109493;1252;72422;-65
2023/09/20 09:15:44;;;;;;;8.60;2.40;;;;;;;17.45;66.10;99305.27;109486;1252;57304;-67
2023/09/20 09:18:31;;;;;;;8.20;2.00;;;;;;;17.71;65.60;99301.27;109205;1253;60485;-65
2023/09/20 09:21:18;;;;;;;15.30;2.70;;;;;;;17.89;63.85;99309.78;109399;1252;72956;-66
2023/09/20 09:24:05;;;;;;;10.20;2.40;;;;;;;18.37;62.78;99310.68;109523;1252;67746;-65
2023/09/20 09:27:06;;;;;;;9.30;2.60;;;;;;;19.04;60.53;99307.04;109388;1253;71590;-68
2023/09/20 09:29:57;;;;;;;8.40;2.30;;;;;;;19.31;58.55;99304.51;109114;1256;58819;-65
2023/09/20 09:32:48;;;;;;;7.90;2.20;;;;;;;19.52;58.01;99299.77;109152;1256;61378;-66
2023/09/20 09:35:36;;;;;;;11.00;2.70;;;;;;;20.04;56.49;99300.17;109128;1256;74171;-66
2023/09/20 09:38:35;;;;;;;11.00;2.60;;;;;;;21.49;53.00;99291.98;109060;1257;68673;-67
2023/09/20 09:41:21;;;;;;;8.00;2.30;;;;;;;22.92;48.57;99296.71;109111;1256;71162;-66
2023/09/20 09:44:08;;;;;;;9.40;2.30;;;;;;;23.64;46.21;99292.54;109071;1256;57339;-64
2023/09/20 09:46:58;;;;;;;7.20;2.00;;;;;;;23.64;45.64;99288.19;109140;1256;60090;-67
2023/09/20 09:49:50;;;;;;;9.50;2.30;;;;;;;23.47;46.38;99305.84;109187;1256;74021;-67
2023/09/20 09:52:41;;;;;;;7.80;2.40;;;;;;;23.02;46.63;99300.23;109117;1256;66691;-64
2023/09/20 09:55:27;;;;;;;7.70;2.00;;;;;;;23.00;47.44;99303.17;109128;1256;74373;-64
2023/09/20 09:58:13;;;;;;;7.60;2.20;;;;;;;24.23;44.98;99305.17;109145;1256;58906;-64
2023/09/20 10:01:05;;;;;;;8.20;2.10;;;;;;;25.74;42.26;99298.55;109263;1254;61038;-64
2023/09/20 10:03:55;;;;;;;8.10;1.90;;;;;;;27.18;38.62;99303.39;109349;1253;72964;-65
2023/09/20 10:07:09;;;;;;;6.60;1.70;;;;;;;28.04;37.14;99296.17;109279;1252;67842;-67
2023/09/20 10:10:13;;;;;;;7.70;2.20;;;;;;;29.23;35.21;99305.05;109337;1252;73505;-65
2023/09/20 10:13:03;;;;;;;8.90;2.30;;;;;;;30.53;33.62;99303.39;109409;1253;57977;-67
2023/09/20 10:15:51;;;;;;;7.60;2.10;;;;;;;31.57;31.29;99295.73;109383;1253;61411;-64
2023/09/20 10:18:51;;;;;;;8.80;2.00;;;;;;;31.93;30.23;99295.35;109500;1252;74047;-63
2023/09/20 10:22:08;;;;;;;8.90;1.90;;;;;;;32.11;30.22;99295.48;109266;1252;67213;-65
2023/09/20 10:24:58;;;;;;;7.90;1.90;;;;;;;31.83;30.81;99295.80;109359;1253;73158;-68
2023/09/20 10:27:44;;;;;;;7.80;1.80;;;;;;;32.14;30.42;99290.67;109435;1252;57383;-67
2023/09/20 10:30:34;;;;;;;7.20;1.90;;;;;;;32.51;29.67;99293.80;109510;1252;60175;-65
2023/09/20 10:33:48;;;;;;;6.50;1.40;;;;;;;32.70;29.41;99298.12;109467;1252;73290;-64
2023/09/20 10:36:35;;;;;;;10.80;1.70;;;;;;;32.64;29.27;99294.30;109522;1253;67701;-64
2023/09/20 10:39:23;;;;;;;6.50;1.40;;;;;;;32.09;29.80;99296.06;109507;1252;73385;-64
2023/09/20 10:42:15;;;;;;;6.30;1.60;;;;;;;31.35;30.72;99290.13;109472;1252;57863;-63
2023/09/20 10:45:05;;;;;;;7.00;1.90;;;;;;;30.88;31.28;99287.40;109489;1252;60704;-63
2023/09/20 10:47:53;;;;;;;8.40;1.60;;;;;;;30.85;31.64;99287.94;109263;1252;71993;-64
2023/09/20 10:50:47;;;;;;;7.10;1.70;;;;;;;30.81;31.78;99294.36;109429;1252;67913;-64
2023/09/20 10:53:43;;;;;;;6.50;1.50;;;;;;;29.93;32.99;99291.81;109371;1253;73879;-64
2023/09/20 10:56:53;;;;;;;9.20;1.60;;;;;;;29.50;33.72;99289.51;109455;1253;58653;-63
2023/09/20 10:59:44;;;;;;;6.70;1.80;;;;;;;29.05;34.36;99293.06;109525;1252;60316;-63
2023/09/20 11:02:32;;;;;;;6.80;1.60;;;;;;;28.39;35.33;99277.95;109472;1252;74056;-64
2023/09/20 11:05:19;;;;;;;7.00;1.50;;;;;;;28.82;35.23;99269.20;109502;1252;66016;-63
2023/09/20 11:08:08;;;;;;;6.80;1.60;;;;;;;29.30;34.33;99263.70;109399;1253;72583;-64
2023/09/20 11:10:58;;;;;;;6.60;1.50;;;;;;;29.54;33.85;99267.95;109467;1252;59014;-65
2023/09/20 11:13:46;;;;;;;6.20;1.60;;;;;;;28.89;34.64;99270.20;109254;1253;58739;-64
2023/09/20 11:16:33;;;;;;;8.20;1.60;;;;;;;29.05;34.83;99268.84;109521;1252;74064;-64
2023/09/20 11:19:19;;;;;;;6.20;1.50;;;;;;;29.04;34.68;99271.16;109493;1252;69163;-64
2023/09/20 11:22:06;;;;;;;6.60;1.50;;;;;;;29.20;34.80;99270.54;109517;1252;72503;-67
2023/09/20 11:24:54;;;;;;;6.80;1.50;;;;;;;29.02;34.78;99272.16;109502;1252;57789;-64
2023/09/20 11:27:41;;;;;;;7.10;1.60;;;;;;;28.60;35.60;99273.06;109469;1252;58860;-64
2023/09/20 11:30:28;;;;;;;6.60;1.40;;;;;;;28.17;36.14;99276.88;109369;1252;73878;-64
2023/09/20 11:33:29;;;;;;;7.20;1.50;;;;;;;27.30;37.55;99279.60;109494;1252;69065;-64
2023/09/20 11:36:19;;;;;;;7.40;1.60;;;;;;;26.45;39.40;99276.16;109539;1252;72472;-64
2023/09/20 11:39:05;;;;;;;7.00;1.60;;;;;;;26.16;40.20;99275.13;109471;1252;57241;-62
2023/09/20 11:42:00;;;;;;;9.60;1.60;;;;;;;25.95;40.50;99273.10;109477;1252;59186;-64
2023/09/20 11:44:55;;;;;;;6.40;1.40;;;;;;;25.70;41.39;99282.24;109539;1252;71492;-64
2023/09/20 11:47:44;;;;;;;7.10;2.00;;;;;;;25.35;41.84;99274.83;109528;1252;69227;-65
2023/09/20 11:50:30;;;;;;;6.40;1.60;;;;;;;25.25;42.38;99276.74;109562;1252;72470;-64
2023/09/20 11:53:19;;;;;;;8.00;2.10;;;;;;;25.37;42.34;99278.83;109379;1253;58821;-67
2023/09/20 11:56:06;;;;;;;9.10;1.80;;;;;;;25.45;42.30;99276.35;109484;1252;61346;-64
2023/09/20 11:58:53;;;;;;;8.40;1.80;;;;;;;25.58;42.04;99275.53;109522;1252;73862;-63
2023/09/20 12:01:41;;;;;;;6.80;2.00;;;;;;;25.84;41.77;99267.55;109327;1253;68734;-66
2023/09/20 12:04:28;;;;;;;5.80;1.60;;;;;;;25.97;41.39;99267.52;109524;1252;72660;-63
2023/09/20 12:07:15;;;;;;;7.60;1.70;;;;;;;25.81;41.63;99263.08;109500;1252;57915;-63
2023/09/20 12:10:01;;;;;;;8.30;1.80;;;;;;;26.01;41.83;99266.81;109539;1252;58724;-65
2023/09/20 12:12:51;;;;;;;8.50;1.70;;;;;;;26.10;41.90;99264.80;109507;1252;72882;-63
2023/09/20 12:15:42;;;;;;;6.80;1.60;;;;;;;25.70;42.18;99261.23;109398;1252;68748;-64
2023/09/20 12:18:29;;;;;;;6.50;1.50;;;;;;;25.56;42.42;99254.74;109494;1252;74092;-63
2023/09/20 12:21:16;;;;;;;6.60;1.60;;;;;;;25.34;42.69;99264.58;109587;1252;57268;-65
2023/09/20 12:24:04;;;;;;;5.90;1.50;;;;;;;25.01;43.34;99268.88;109462;1252;61639;-63
2023/09/20 12:26:51;;;;;;;6.70;1.50;;;;;;;24.61;43.59;99267.61;109442;1252;71603;-64
2023/09/20 12:29:37;;;;;;;7.40;1.80;;;;;;;24.35;44.33;99270.63;109386;1253;67668;-62
2023/09/20 12:32:24;;;;;;;5.90;1.60;;;;;;;24.11;45.24;99264.56;109526;1253;72546;-63
2023/09/20 12:35:11;;;;;;;5.80;1.60;;;;;;;23.99;45.63;99259.34;109441;1253;57390;-65
2023/09/20 12:37:58;;;;;;;7.30;1.60;;;;;;;23.82;45.87;99261.02;109468;1253;58926;-66
2023/09/20 12:40:44;;;;;;;7.70;1.90;;;;;;;23.41;46.75;99263.50;109533;1253;72767;-65
2023/09/20 12:43:32;;;;;;;8.60;1.70;;;;;;;23.25;47.10;99269.27;109562;1253;66455;-65
2023/09/20 12:46:20;;;;;;;6.40;1.50;;;;;;;23.01;47.50;99268.45;109538;1253;72473;-65
2023/09/20 12:49:07;;;;;;;6.70;1.60;;;;;;;22.86;47.97;99274.91;109541;1253;57335;-65
2023/09/20 12:51:53;;;;;;;5.90;1.60;;;;;;;22.67;48.57;99271.13;109468;1253;60316;-65
2023/09/20 12:54:40;;;;;;;6.80;1.70;;;;;;;22.64;48.90;99278.69;109559;1253;72703;-62
2023/09/20 12:57:27;;;;;;;9.10;1.70;;;;;;;22.62;49.22;99278.17;109570;1253;66644;-66
2023/09/20 13:00:14;;;;;;;8.90;1.60;;;;;;;22.67;49.15;99283.02;109553;1253;73119;-66
2023/09/20 13:03:12;;;;;;;6.50;1.60;;;;;;;22.72;49.06;99286.70;109555;1252;57345;-64
2023/09/20 13:05:59;;;;;;;11.30;1.70;;;;;;;22.62;48.97;99287.14;109566;1253;58910;-67
2023/09/20 13:08:45;;;;;;;7.80;1.80;;;;;;;22.48;49.36;99283.20;109586;1253;73942;-65
2023/09/20 13:11:32;;;;;;;7.20;1.60;;;;;;;22.33;50.06;99287.88;109440;1253;66942;-65
2023/09/20 13:14:19;;;;;;;6.10;1.60;;;;;;;22.10;50.72;99291.45;109574;1253;71432;-63
2023/09/20 13:17:05;;;;;;;8.10;1.50;;;;;;;22.03;51.02;99288.46;109550;1253;57850;-62
2023/09/20 13:19:52;;;;;;;7.70;1.90;;;;;;;21.98;51.30;99286.88;109498;1252;58914;-64
2023/09/20 13:22:42;;;;;;;6.00;1.70;;;;;;;21.92;51.58;99288.21;109503;1253;72823;-64
2023/09/20 13:25:31;;;;;;;6.80;1.50;;;;;;;21.92;51.90;99289.84;109509;1253;67794;-64
2023/09/20 13:28:18;;;;;;;6.30;1.70;;;;;;;21.80;52.13;99291.16;109401;1252;71223;-64
2023/09/20 13:31:04;;;;;;;6.10;1.60;;;;;;;21.77;52.03;99295.12;109155;1253;57962;-63
2023/09/20 13:33:51;;;;;;;7.30;1.80;;;;;;;21.81;52.26;99298.70;109545;1252;58959;-64
2023/09/20 13:36:37;;;;;;;6.70;2.10;;;;;;;21.84;52.30;99300.65;109532;1252;71264;-65
2023/09/20 13:39:24;;;;;;;6.80;1.80;;;;;;;21.99;52.45;99293.52;109281;1252;66785;-66
2023/09/20 13:42:10;;;;;;;6.70;1.40;;;;;;;22.03;51.93;99296.23;109500;1252;72726;-64